sensor_id;sensor_type;location;lat;lon;timestamp;pressure;altitude;pressure_sealevel;temperature;humidity
79372;BME280;68914;51.262;6.802;2023-04-09T00:00:47;102275.22;;;9.49;73.16
79372;BME280;68914;51.262;6.802;2023-04-09T00:01:47;102272.53;;;9.41;73.13
79372;BME280;68914;51.262;6.802;2023-04-09T00:02:48;102267.63;;;9.46;73.82
79372;BME280;68914;51.262;6.802;2023-04-09T00:03:48;102269.91;;;9.41;73.38
79372;BME280;68914;51.262;6.802;2023-04-09T00:04:49;102278.31;;;9.44;73.43
79372;BME280;68914;51.262;6.802;2023-04-09T00:05:49;102276.50;;;9.45;73.18
79372;BME280;68914;51.262;6.802;2023-04-09T00:06:50;102269.44;;;9.45;73.46
79372;BME280;68914;51.262;6.802;2023-04-09T00:07:51;102271.19;;;9.36;73.92
79372;BME280;68914;51.262;6.802;2023-04-09T00:08:52;102274.13;;;9.33;73.72
79372;BME280;68914;51.262;6.802;2023-04-09T00:09:52;102271.47;;;9.33;73.91
79372;BME280;68914;51.262;6.802;2023-04-09T00:10:53;102266.53;;;9.30;73.36
79372;BME280;68914;51.262;6.802;2023-04-09T00:11:54;102267.03;;;9.34;73.67
79372;BME280;68914;51.262;6.802;2023-04-09T00:12:56;102275.63;;;9.36;73.74
79372;BME280;68914;51.262;6.802;2023-04-09T00:13:57;102268.84;;;9.33;73.20
79372;BME280;68914;51.262;6.802;2023-04-09T00:14:57;102266.22;;;9.33;73.42
79372;BME280;68914;51.262;6.802;2023-04-09T00:15:58;102266.69;;;9.29;73.87
79372;BME280;68914;51.262;6.802;2023-04-09T00:16:59;102275.56;;;9.28;73.71
79372;BME280;68914;51.262;6.802;2023-04-09T00:17:59;102274.97;;;9.16;74.41
79372;BME280;68914;51.262;6.802;2023-04-09T00:19:00;102258.06;;;9.19;73.89
79372;BME280;68914;51.262;6.802;2023-04-09T00:20:01;102262.00;;;9.15;74.00
79372;BME280;68914;51.262;6.802;2023-04-09T00:21:02;102268.00;;;9.07;74.43
79372;BME280;68914;51.262;6.802;2023-04-09T00:22:02;102272.19;;;9.18;74.02
79372;BME280;68914;51.262;6.802;2023-04-09T00:23:03;102259.94;;;9.08;73.98
79372;BME280;68914;51.262;6.802;2023-04-09T00:24:09;102264.03;;;9.03;74.84
79372;BME280;68914;51.262;6.802;2023-04-09T00:25:10;102268.59;;;9.01;74.91
79372;BME280;68914;51.262;6.802;2023-04-09T00:26:11;102265.72;;;8.94;74.63
79372;BME280;68914;51.262;6.802;2023-04-09T00:27:13;102265.59;;;8.96;75.00
79372;BME280;68914;51.262;6.802;2023-04-09T00:28:13;102266.94;;;9.00;74.89
79372;BME280;68914;51.262;6.802;2023-04-09T00:29:15;102259.19;;;8.98;74.45
79372;BME280;68914;51.262;6.802;2023-04-09T00:30:34;102266.94;;;9.00;74.54
79372;BME280;68914;51.262;6.802;2023-04-09T00:31:35;102268.06;;;8.97;74.78
79372;BME280;68914;51.262;6.802;2023-04-09T00:32:41;102262.81;;;8.97;74.39
79372;BME280;68914;51.262;6.802;2023-04-09T00:33:42;102267.94;;;8.99;74.55
79372;BME280;68914;51.262;6.802;2023-04-09T00:34:45;102267.41;;;8.95;74.52
79372;BME280;68914;51.262;6.802;2023-04-09T00:35:46;102261.28;;;8.95;74.69
79372;BME280;68914;51.262;6.802;2023-04-09T00:36:46;102263.56;;;8.90;74.60
79372;BME280;68914;51.262;6.802;2023-04-09T00:37:47;102259.28;;;8.89;74.63
79372;BME280;68914;51.262;6.802;2023-04-09T00:38:49;102254.47;;;8.84;74.63
79372;BME280;68914;51.262;6.802;2023-04-09T00:39:50;102265.28;;;8.81;74.84
79372;BME280;68914;51.262;6.802;2023-04-09T00:40:50;102264.25;;;8.74;75.01
79372;BME280;68914;51.262;6.802;2023-04-09T00:41:58;102253.59;;;8.75;75.21
79372;BME280;68914;51.262;6.802;2023-04-09T00:43:02;102250.03;;;8.67;74.91
79372;BME280;68914;51.262;6.802;2023-04-09T00:44:02;102252.66;;;8.67;74.84
79372;BME280;68914;51.262;6.802;2023-04-09T00:45:04;102260.53;;;8.67;75.38
79372;BME280;68914;51.262;6.802;2023-04-09T00:46:05;102259.59;;;8.68;75.49
79372;BME280;68914;51.262;6.802;2023-04-09T00:47:06;102259.28;;;8.71;75.29
79372;BME280;68914;51.262;6.802;2023-04-09T00:48:06;102261.16;;;8.60;75.35
79372;BME280;68914;51.262;6.802;2023-04-09T00:49:08;102253.84;;;8.54;75.98
79372;BME280;68914;51.262;6.802;2023-04-09T00:50:08;102251.66;;;8.50;75.89
79372;BME280;68914;51.262;6.802;2023-04-09T00:51:09;102260.59;;;8.39;76.31
79372;BME280;68914;51.262;6.802;2023-04-09T00:52:10;102252.28;;;8.44;76.29
79372;BME280;68914;51.262;6.802;2023-04-09T00:53:11;102252.94;;;8.46;76.39
79372;BME280;68914;51.262;6.802;2023-04-09T00:54:12;102253.22;;;8.43;76.33
79372;BME280;68914;51.262;6.802;2023-04-09T00:55:13;102249.25;;;8.38;76.17
79372;BME280;68914;51.262;6.802;2023-04-09T00:56:14;102256.19;;;8.30;76.92
79372;BME280;68914;51.262;6.802;2023-04-09T00:57:17;102256.88;;;8.32;76.31
79372;BME280;68914;51.262;6.802;2023-04-09T00:58:18;102251.09;;;8.28;76.60
79372;BME280;68914;51.262;6.802;2023-04-09T00:59:27;102256.63;;;8.25;76.39
79372;BME280;68914;51.262;6.802;2023-04-09T01:00:30;102252.72;;;8.29;76.57
79372;BME280;68914;51.262;6.802;2023-04-09T01:01:31;102259.78;;;8.29;76.39
79372;BME280;68914;51.262;6.802;2023-04-09T01:02:32;102253.72;;;8.28;76.81
79372;BME280;68914;51.262;6.802;2023-04-09T01:03:33;102253.19;;;8.25;76.42
79372;BME280;68914;51.262;6.802;2023-04-09T01:04:33;102261.59;;;8.28;76.37
79372;BME280;68914;51.262;6.802;2023-04-09T01:06:05;102260.78;;;8.28;76.70
79372;BME280;68914;51.262;6.802;2023-04-09T01:07:23;102257.47;;;8.26;76.35
79372;BME280;68914;51.262;6.802;2023-04-09T01:09:00;102255.28;;;8.21;76.58
79372;BME280;68914;51.262;6.802;2023-04-09T01:10:16;102257.09;;;8.11;76.84
79372;BME280;68914;51.262;6.802;2023-04-09T01:13:29;102259.63;;;8.03;76.83
79372;BME280;68914;51.262;6.802;2023-04-09T01:15:06;102252.44;;;8.05;77.06
79372;BME280;68914;51.262;6.802;2023-04-09T01:16:09;102252.19;;;7.98;77.13
79372;BME280;68914;51.262;6.802;2023-04-09T01:17:17;102253.06;;;7.89;77.49
79372;BME280;68914;51.262;6.802;2023-04-09T01:18:30;102259.72;;;7.83;77.83
79372;BME280;68914;51.262;6.802;2023-04-09T01:19:53;102260.47;;;7.66;78.51
79372;BME280;68914;51.262;6.802;2023-04-09T01:21:01;102250.50;;;7.70;78.07
79372;BME280;68914;51.262;6.802;2023-04-09T01:22:19;102252.59;;;7.66;78.58
79372;BME280;68914;51.262;6.802;2023-04-09T01:26:13;102258.09;;;7.73;77.74
79372;BME280;68914;51.262;6.802;2023-04-09T01:27:21;102259.03;;;7.81;77.77
79372;BME280;68914;51.262;6.802;2023-04-09T01:28:38;102261.13;;;7.78;77.73
79372;BME280;68914;51.262;6.802;2023-04-09T01:29:47;102254.78;;;7.71;78.20
79372;BME280;68914;51.262;6.802;2023-04-09T01:31:02;102258.78;;;7.75;77.83
79372;BME280;68914;51.262;6.802;2023-04-09T01:32:06;102252.25;;;7.79;77.69
79372;BME280;68914;51.262;6.802;2023-04-09T01:33:08;102261.69;;;7.72;77.98
79372;BME280;68914;51.262;6.802;2023-04-09T01:34:11;102252.59;;;7.66;78.51
79372;BME280;68914;51.262;6.802;2023-04-09T01:35:13;102258.66;;;7.67;78.84
79372;BME280;68914;51.262;6.802;2023-04-09T01:36:14;102262.00;;;7.69;79.18
79372;BME280;68914;51.262;6.802;2023-04-09T01:37:15;102260.97;;;7.79;78.53
79372;BME280;68914;51.262;6.802;2023-04-09T01:38:18;102261.94;;;7.88;78.17
79372;BME280;68914;51.262;6.802;2023-04-09T01:39:20;102256.84;;;7.77;78.85
79372;BME280;68914;51.262;6.802;2023-04-09T01:40:21;102257.41;;;7.80;78.63
79372;BME280;68914;51.262;6.802;2023-04-09T01:41:23;102263.84;;;7.86;78.36
79372;BME280;68914;51.262;6.802;2023-04-09T01:42:25;102262.78;;;7.79;78.68
79372;BME280;68914;51.262;6.802;2023-04-09T01:43:27;102259.53;;;7.95;77.89
79372;BME280;68914;51.262;6.802;2023-04-09T01:44:28;102263.09;;;8.03;77.72
79372;BME280;68914;51.262;6.802;2023-04-09T01:45:29;102254.72;;;8.18;77.57
79372;BME280;68914;51.262;6.802;2023-04-09T01:46:29;102262.47;;;8.19;76.98
79372;BME280;68914;51.262;6.802;2023-04-09T01:47:31;102263.91;;;8.31;76.84
79372;BME280;68914;51.262;6.802;2023-04-09T01:48:32;102262.97;;;8.32;76.62
79372;BME280;68914;51.262;6.802;2023-04-09T01:49:34;102264.50;;;8.25;76.79
79372;BME280;68914;51.262;6.802;2023-04-09T01:50:36;102266.25;;;8.34;76.90
79372;BME280;68914;51.262;6.802;2023-04-09T01:51:36;102264.22;;;8.28;77.12
79372;BME280;68914;51.262;6.802;2023-04-09T01:52:37;102258.94;;;8.38;76.80
79372;BME280;68914;51.262;6.802;2023-04-09T01:53:39;102245.91;;;8.36;76.44
79372;BME280;68914;51.262;6.802;2023-04-09T01:54:41;102254.84;;;8.53;75.91
79372;BME280;68914;51.262;6.802;2023-04-09T01:55:42;102256.34;;;8.56;75.71
79372;BME280;68914;51.262;6.802;2023-04-09T01:56:44;102252.94;;;8.46;76.40
79372;BME280;68914;51.262;6.802;2023-04-09T01:57:45;102250.94;;;8.40;76.03
79372;BME280;68914;51.262;6.802;2023-04-09T01:58:46;102251.66;;;8.50;75.89
79372;BME280;68914;51.262;6.802;2023-04-09T01:59:46;102257.16;;;8.56;75.67
79372;BME280;68914;51.262;6.802;2023-04-09T02:00:48;102251.38;;;8.53;75.92
79372;BME280;68914;51.262;6.802;2023-04-09T02:01:53;102253.94;;;8.45;76.22
79372;BME280;68914;51.262;6.802;2023-04-09T02:03:16;102254.16;;;8.51;75.61
79372;BME280;68914;51.262;6.802;2023-04-09T02:04:36;102262.06;;;8.51;75.87
79372;BME280;68914;51.262;6.802;2023-04-09T02:05:43;102254.59;;;8.47;75.79
79372;BME280;68914;51.262;6.802;2023-04-09T02:07:01;102254.25;;;8.59;75.29
79372;BME280;68914;51.262;6.802;2023-04-09T02:08:06;102258.81;;;8.57;75.30
79372;BME280;68914;51.262;6.802;2023-04-09T02:09:09;102253.31;;;8.51;75.56
79372;BME280;68914;51.262;6.802;2023-04-09T02:10:12;102253.31;;;8.51;75.36
79372;BME280;68914;51.262;6.802;2023-04-09T02:11:14;102254.75;;;8.45;75.62
79372;BME280;68914;51.262;6.802;2023-04-09T02:12:17;102249.53;;;8.35;76.25
79372;BME280;68914;51.262;6.802;2023-04-09T02:13:18;102251.66;;;8.22;76.94
79372;BME280;68914;51.262;6.802;2023-04-09T02:14:21;102245.44;;;8.23;76.71
79372;BME280;68914;51.262;6.802;2023-04-09T02:15:23;102242.66;;;8.25;76.78
79372;BME280;68914;51.262;6.802;2023-04-09T02:16:24;102252.56;;;8.31;76.59
79372;BME280;68914;51.262;6.802;2023-04-09T02:17:25;102241.59;;;8.18;76.77
79372;BME280;68914;51.262;6.802;2023-04-09T02:18:29;102248.28;;;8.12;77.17
79372;BME280;68914;51.262;6.802;2023-04-09T02:19:42;102245.22;;;8.17;76.93
79372;BME280;68914;51.262;6.802;2023-04-09T02:20:43;102244.41;;;8.06;76.99
79372;BME280;68914;51.262;6.802;2023-04-09T02:21:45;102246.50;;;8.03;77.13
79372;BME280;68914;51.262;6.802;2023-04-09T02:22:46;102240.16;;;7.96;77.64
79372;BME280;68914;51.262;6.802;2023-04-09T02:23:46;102244.16;;;8.00;77.90
79372;BME280;68914;51.262;6.802;2023-04-09T02:24:47;102238.41;;;7.96;77.50
79372;BME280;68914;51.262;6.802;2023-04-09T02:25:48;102240.75;;;7.89;77.52
79372;BME280;68914;51.262;6.802;2023-04-09T02:26:49;102232.19;;;7.87;77.69
79372;BME280;68914;51.262;6.802;2023-04-09T02:27:49;102235.94;;;7.85;77.80
79372;BME280;68914;51.262;6.802;2023-04-09T02:28:50;102232.69;;;7.73;78.27
79372;BME280;68914;51.262;6.802;2023-04-09T02:29:51;102236.13;;;7.74;78.36
79372;BME280;68914;51.262;6.802;2023-04-09T02:30:51;102233.25;;;7.67;78.48
79372;BME280;68914;51.262;6.802;2023-04-09T02:31:52;102236.72;;;7.58;78.95
79372;BME280;68914;51.262;6.802;2023-04-09T02:32:52;102239.63;;;7.55;78.88
79372;BME280;68914;51.262;6.802;2023-04-09T02:33:53;102237.41;;;7.60;78.92
79372;BME280;68914;51.262;6.802;2023-04-09T02:34:54;102239.06;;;7.61;78.32
79372;BME280;68914;51.262;6.802;2023-04-09T02:35:54;102235.75;;;7.59;78.69
79372;BME280;68914;51.262;6.802;2023-04-09T02:36:55;102240.03;;;7.60;78.79
79372;BME280;68914;51.262;6.802;2023-04-09T02:37:55;102233.94;;;7.59;78.43
79372;BME280;68914;51.262;6.802;2023-04-09T02:38:56;102232.31;;;7.58;78.47
79372;BME280;68914;51.262;6.802;2023-04-09T02:39:57;102237.97;;;7.54;78.90
79372;BME280;68914;51.262;6.802;2023-04-09T02:40:57;102232.19;;;7.50;78.61
79372;BME280;68914;51.262;6.802;2023-04-09T02:41:58;102230.53;;;7.49;78.32
79372;BME280;68914;51.262;6.802;2023-04-09T02:43:00;102231.75;;;7.55;77.92
79372;BME280;68914;51.262;6.802;2023-04-09T02:44:01;102233.88;;;7.42;78.24
79372;BME280;68914;51.262;6.802;2023-04-09T02:45:02;102235.25;;;7.36;78.24
79372;BME280;68914;51.262;6.802;2023-04-09T02:46:06;102233.47;;;7.36;78.63
79372;BME280;68914;51.262;6.802;2023-04-09T02:47:08;102233.88;;;7.32;78.99
79372;BME280;68914;51.262;6.802;2023-04-09T02:48:11;102231.81;;;7.35;78.51
79372;BME280;68914;51.262;6.802;2023-04-09T02:49:11;102230.31;;;7.33;78.47
79372;BME280;68914;51.262;6.802;2023-04-09T02:50:12;102228.63;;;7.32;78.63
79372;BME280;68914;51.262;6.802;2023-04-09T02:51:19;102232.53;;;7.18;79.54
79372;BME280;68914;51.262;6.802;2023-04-09T02:52:20;102228.81;;;7.21;78.69
79372;BME280;68914;51.262;6.802;2023-04-09T02:53:23;102228.97;;;7.09;80.05
79372;BME280;68914;51.262;6.802;2023-04-09T02:54:24;102225.09;;;7.13;79.25
79372;BME280;68914;51.262;6.802;2023-04-09T02:55:25;102224.50;;;7.20;78.74
79372;BME280;68914;51.262;6.802;2023-04-09T02:56:26;102225.38;;;7.10;79.28
79372;BME280;68914;51.262;6.802;2023-04-09T02:57:27;102228.84;;;7.01;79.56
79372;BME280;68914;51.262;6.802;2023-04-09T02:58:27;102223.16;;;7.06;79.15
79372;BME280;68914;51.262;6.802;2023-04-09T02:59:28;102227.03;;;7.02;79.05
79372;BME280;68914;51.262;6.802;2023-04-09T03:00:29;102228.94;;;7.00;79.16
79372;BME280;68914;51.262;6.802;2023-04-09T03:01:29;102223.84;;;6.98;79.11
79372;BME280;68914;51.262;6.802;2023-04-09T03:02:30;102231.84;;;6.97;79.77
79372;BME280;68914;51.262;6.802;2023-04-09T03:03:31;102225.38;;;6.91;79.49
79372;BME280;68914;51.262;6.802;2023-04-09T03:04:31;102219.72;;;6.86;79.31
79372;BME280;68914;51.262;6.802;2023-04-09T03:05:32;102222.63;;;6.83;79.33
79372;BME280;68914;51.262;6.802;2023-04-09T03:06:32;102227.16;;;6.81;79.84
79372;BME280;68914;51.262;6.802;2023-04-09T03:07:33;102224.00;;;6.87;79.31
79372;BME280;68914;51.262;6.802;2023-04-09T03:08:34;102224.41;;;6.82;79.84
79372;BME280;68914;51.262;6.802;2023-04-09T03:09:34;102217.91;;;6.77;79.63
79372;BME280;68914;51.262;6.802;2023-04-09T03:10:38;102216.00;;;6.79;79.81
79372;BME280;68914;51.262;6.802;2023-04-09T03:11:39;102211.44;;;6.71;80.02
79372;BME280;68914;51.262;6.802;2023-04-09T03:12:39;102215.16;;;6.78;79.97
79372;BME280;68914;51.262;6.802;2023-04-09T03:13:40;102213.78;;;6.74;79.74
79372;BME280;68914;51.262;6.802;2023-04-09T03:14:41;102215.97;;;6.69;79.79
79372;BME280;68914;51.262;6.802;2023-04-09T03:15:41;102214.22;;;6.70;80.28
79372;BME280;68914;51.262;6.802;2023-04-09T03:16:42;102215.16;;;6.69;79.64
79372;BME280;68914;51.262;6.802;2023-04-09T03:17:42;102218.75;;;6.68;79.21
79372;BME280;68914;51.262;6.802;2023-04-09T03:18:43;102215.31;;;6.67;78.99
79372;BME280;68914;51.262;6.802;2023-04-09T03:19:44;102218.06;;;6.75;79.25
79372;BME280;68914;51.262;6.802;2023-04-09T03:20:45;102213.91;;;6.73;79.46
79372;BME280;68914;51.262;6.802;2023-04-09T03:21:48;102219.72;;;6.67;79.77
79372;BME280;68914;51.262;6.802;2023-04-09T03:22:52;102215.84;;;6.51;80.07
79372;BME280;68914;51.262;6.802;2023-04-09T03:24:03;102215.56;;;6.54;79.72
79372;BME280;68914;51.262;6.802;2023-04-09T03:25:04;102211.31;;;6.53;80.04
79372;BME280;68914;51.262;6.802;2023-04-09T03:26:06;102207.69;;;6.45;80.23
79372;BME280;68914;51.262;6.802;2023-04-09T03:27:14;102213.47;;;6.48;79.93
79372;BME280;68914;51.262;6.802;2023-04-09T03:28:15;102212.25;;;6.43;79.81
79372;BME280;68914;51.262;6.802;2023-04-09T03:29:20;102199.81;;;6.35;80.13
79372;BME280;68914;51.262;6.802;2023-04-09T03:30:21;102188.25;;;6.37;80.00
79372;BME280;68914;51.262;6.802;2023-04-09T03:31:21;102203.56;;;6.42;79.89
79372;BME280;68914;51.262;6.802;2023-04-09T03:32:22;102208.25;;;6.38;80.56
79372;BME280;68914;51.262;6.802;2023-04-09T03:33:23;102203.69;;;6.40;79.67
79372;BME280;68914;51.262;6.802;2023-04-09T03:34:28;102204.66;;;6.39;79.65
79372;BME280;68914;51.262;6.802;2023-04-09T03:35:30;102200.91;;;6.32;79.55
79372;BME280;68914;51.262;6.802;2023-04-09T03:36:33;102202.84;;;6.30;79.71
79372;BME280;68914;51.262;6.802;2023-04-09T03:37:36;102205.31;;;6.32;80.28
79372;BME280;68914;51.262;6.802;2023-04-09T03:38:37;102200.78;;;6.34;80.27
79372;BME280;68914;51.262;6.802;2023-04-09T03:39:44;102205.19;;;6.33;79.66
79372;BME280;68914;51.262;6.802;2023-04-09T03:40:44;102208.09;;;6.30;79.61
79372;BME280;68914;51.262;6.802;2023-04-09T03:41:45;102205.47;;;6.30;80.01
79372;BME280;68914;51.262;6.802;2023-04-09T03:42:49;102205.88;;;6.26;80.16
79372;BME280;68914;51.262;6.802;2023-04-09T03:43:51;102199.94;;;6.33;80.02
79372;BME280;68914;51.262;6.802;2023-04-09T03:44:56;102199.53;;;6.28;79.83
79372;BME280;68914;51.262;6.802;2023-04-09T03:46:15;102195.25;;;6.27;79.85
79372;BME280;68914;51.262;6.802;2023-04-09T03:47:18;102198.84;;;6.26;79.35
79372;BME280;68914;51.262;6.802;2023-04-09T03:48:18;102194.56;;;6.25;79.46
79372;BME280;68914;51.262;6.802;2023-04-09T03:49:19;102187.94;;;6.21;79.98
79372;BME280;68914;51.262;6.802;2023-04-09T03:50:20;102196.63;;;6.22;79.54
79372;BME280;68914;51.262;6.802;2023-04-09T03:51:24;102198.00;;;6.16;79.50
79372;BME280;68914;51.262;6.802;2023-04-09T03:52:30;102192.75;;;6.16;79.84
79372;BME280;68914;51.262;6.802;2023-04-09T03:53:39;102192.19;;;6.12;80.08
79372;BME280;68914;51.262;6.802;2023-04-09T03:54:40;102197.16;;;6.06;80.52
79372;BME280;68914;51.262;6.802;2023-04-09T03:55:47;102203.50;;;6.13;79.67
79372;BME280;68914;51.262;6.802;2023-04-09T03:56:54;102195.78;;;6.11;80.66
79372;BME280;68914;51.262;6.802;2023-04-09T03:57:57;102198.69;;;6.18;80.59
79372;BME280;68914;51.262;6.802;2023-04-09T03:59:02;102191.94;;;6.15;80.72
79372;BME280;68914;51.262;6.802;2023-04-09T04:00:11;102201.03;;;6.21;80.70
79372;BME280;68914;51.262;6.802;2023-04-09T04:01:30;102194.13;;;6.20;79.91
79372;BME280;68914;51.262;6.802;2023-04-09T04:02:33;102202.97;;;6.29;79.56
79372;BME280;68914;51.262;6.802;2023-04-09T04:03:37;102199.41;;;6.30;79.83
79372;BME280;68914;51.262;6.802;2023-04-09T04:04:49;102199.94;;;6.33;78.63
79372;BME280;68914;51.262;6.802;2023-04-09T04:05:50;102199.69;;;6.27;79.11
79372;BME280;68914;51.262;6.802;2023-04-09T04:06:51;102203.38;;;6.24;78.68
79372;BME280;68914;51.262;6.802;2023-04-09T04:08:08;102198.56;;;6.20;78.99
79372;BME280;68914;51.262;6.802;2023-04-09T04:09:09;102208.19;;;6.19;78.66
79372;BME280;68914;51.262;6.802;2023-04-09T04:10:36;102206.09;;;6.13;78.48
79372;BME280;68914;51.262;6.802;2023-04-09T04:11:36;102206.25;;;6.11;78.95
79372;BME280;68914;51.262;6.802;2023-04-09T04:12:37;102200.44;;;6.08;78.89
79372;BME280;68914;51.262;6.802;2023-04-09T04:13:45;102208.03;;;6.11;79.19
79372;BME280;68914;51.262;6.802;2023-04-09T04:14:45;102206.25;;;6.21;78.03
79372;BME280;68914;51.262;6.802;2023-04-09T04:15:56;102198.56;;;6.20;77.88
79372;BME280;68914;51.262;6.802;2023-04-09T04:16:57;102197.69;;;6.09;78.47
79372;BME280;68914;51.262;6.802;2023-04-09T04:18:02;102202.41;;;6.06;78.83
79372;BME280;68914;51.262;6.802;2023-04-09T04:19:16;102213.28;;;6.11;78.99
79372;BME280;68914;51.262;6.802;2023-04-09T04:20:21;102207.34;;;6.09;78.44
79372;BME280;68914;51.262;6.802;2023-04-09T04:21:33;102205.03;;;6.15;77.98
79372;BME280;68914;51.262;6.802;2023-04-09T04:22:35;102210.81;;;6.19;77.63
79372;BME280;68914;51.262;6.802;2023-04-09T04:23:38;102207.78;;;6.14;78.27
79372;BME280;68914;51.262;6.802;2023-04-09T04:24:50;102204.19;;;6.15;78.28
79372;BME280;68914;51.262;6.802;2023-04-09T04:25:54;102203.06;;;6.08;78.63
79372;BME280;68914;51.262;6.802;2023-04-09T04:27:02;102210.75;;;6.00;78.82
79372;BME280;68914;51.262;6.802;2023-04-09T04:28:07;102202.66;;;6.03;78.39
79372;BME280;68914;51.262;6.802;2023-04-09T04:29:13;102201.53;;;6.05;78.50
79372;BME280;68914;51.262;6.802;2023-04-09T04:30:23;102211.63;;;6.10;78.39
79372;BME280;68914;51.262;6.802;2023-04-09T04:31:37;102203.22;;;6.06;78.26
79372;BME280;68914;51.262;6.802;2023-04-09T04:32:38;102204.47;;;6.12;78.04
79372;BME280;68914;51.262;6.802;2023-04-09T04:33:43;102207.22;;;6.10;78.13
79372;BME280;68914;51.262;6.802;2023-04-09T04:34:48;102208.31;;;6.18;77.93
79372;BME280;68914;51.262;6.802;2023-04-09T04:36:11;102208.44;;;6.06;78.38
79372;BME280;68914;51.262;6.802;2023-04-09T04:37:21;102209.13;;;5.99;77.99
79372;BME280;68914;51.262;6.802;2023-04-09T04:38:23;102202.00;;;5.89;78.68
79372;BME280;68914;51.262;6.802;2023-04-09T04:39:24;102207.06;;;5.81;78.37
79372;BME280;68914;51.262;6.802;2023-04-09T04:40:30;102205.16;;;5.83;78.96
79372;BME280;68914;51.262;6.802;2023-04-09T04:41:34;102211.06;;;5.76;78.72
79372;BME280;68914;51.262;6.802;2023-04-09T04:42:52;102216.69;;;5.71;79.54
79372;BME280;68914;51.262;6.802;2023-04-09T04:43:53;102207.06;;;5.72;79.75
79372;BME280;68914;51.262;6.802;2023-04-09T04:44:56;102214.00;;;5.82;79.05
79372;BME280;68914;51.262;6.802;2023-04-09T04:46:16;102213.09;;;5.72;79.32
79372;BME280;68914;51.262;6.802;2023-04-09T04:47:16;102220.53;;;5.67;79.58
79372;BME280;68914;51.262;6.802;2023-04-09T04:48:18;102216.94;;;5.68;80.05
79372;BME280;68914;51.262;6.802;2023-04-09T04:49:19;102219.69;;;5.66;80.02
79372;BME280;68914;51.262;6.802;2023-04-09T04:50:21;102215.28;;;5.67;80.02
79372;BME280;68914;51.262;6.802;2023-04-09T04:51:30;102221.47;;;5.66;79.44
79372;BME280;68914;51.262;6.802;2023-04-09T04:52:50;102214.66;;;5.75;79.46
79372;BME280;68914;51.262;6.802;2023-04-09T04:53:51;102214.19;;;5.70;79.78
79372;BME280;68914;51.262;6.802;2023-04-09T04:54:52;102224.66;;;5.70;79.13
79372;BME280;68914;51.262;6.802;2023-04-09T04:55:56;102219.31;;;5.71;79.21
79372;BME280;68914;51.262;6.802;2023-04-09T04:56:59;102222.59;;;5.73;79.11
79372;BME280;68914;51.262;6.802;2023-04-09T04:58:26;102215.75;;;5.82;78.59
79372;BME280;68914;51.262;6.802;2023-04-09T04:59:30;102218.59;;;5.69;79.14
79372;BME280;68914;51.262;6.802;2023-04-09T05:00:39;102220.97;;;5.72;79.20
79372;BME280;68914;51.262;6.802;2023-04-09T05:01:40;102221.66;;;5.74;79.43
79372;BME280;68914;51.262;6.802;2023-04-09T05:02:44;102227.59;;;5.76;78.42
79372;BME280;68914;51.262;6.802;2023-04-09T05:03:51;102215.97;;;5.69;79.38
79372;BME280;68914;51.262;6.802;2023-04-09T05:05:05;102228.50;;;5.65;79.29
79372;BME280;68914;51.262;6.802;2023-04-09T05:06:11;102225.06;;;5.65;79.24
79372;BME280;68914;51.262;6.802;2023-04-09T05:07:16;102224.47;;;5.61;79.91
79372;BME280;68914;51.262;6.802;2023-04-09T05:08:24;102224.78;;;5.68;79.57
79372;BME280;68914;51.262;6.802;2023-04-09T05:09:27;102222.88;;;5.70;78.81
79372;BME280;68914;51.262;6.802;2023-04-09T05:10:40;102226.44;;;5.69;78.64
79372;BME280;68914;51.262;6.802;2023-04-09T05:11:42;102223.97;;;5.67;79.32
79372;BME280;68914;51.262;6.802;2023-04-09T05:12:48;102222.91;;;5.80;78.84
79372;BME280;68914;51.262;6.802;2023-04-09T05:13:56;102222.22;;;5.78;78.66
79372;BME280;68914;51.262;6.802;2023-04-09T05:14:57;102219.81;;;5.65;79.49
79372;BME280;68914;51.262;6.802;2023-04-09T05:15:58;102224.78;;;5.68;79.07
79372;BME280;68914;51.262;6.802;2023-04-09T05:16:59;102217.13;;;5.76;79.21
79372;BME280;68914;51.262;6.802;2023-04-09T05:18:07;102219.47;;;5.79;78.61
79372;BME280;68914;51.262;6.802;2023-04-09T05:19:08;102223.34;;;5.85;77.98
79372;BME280;68914;51.262;6.802;2023-04-09T05:20:11;102221.84;;;5.82;78.59
79372;BME280;68914;51.262;6.802;2023-04-09T05:21:29;102228.19;;;5.89;78.81
79372;BME280;68914;51.262;6.802;2023-04-09T05:22:31;102222.91;;;5.80;78.63
79372;BME280;68914;51.262;6.802;2023-04-09T05:23:32;102222.78;;;5.81;78.39
79372;BME280;68914;51.262;6.802;2023-04-09T05:24:34;102226.78;;;5.85;78.49
79372;BME280;68914;51.262;6.802;2023-04-09T05:25:35;102224.28;;;5.74;78.65
79372;BME280;68914;51.262;6.802;2023-04-09T05:26:36;102219.91;;;5.84;78.90
79372;BME280;68914;51.262;6.802;2023-04-09T05:27:37;102222.91;;;5.80;79.07
79372;BME280;68914;51.262;6.802;2023-04-09T05:28:41;102220.16;;;5.81;78.44
79372;BME280;68914;51.262;6.802;2023-04-09T05:29:47;102223.75;;;5.80;78.52
79372;BME280;68914;51.262;6.802;2023-04-09T05:30:48;102219.47;;;5.79;78.69
79372;BME280;68914;51.262;6.802;2023-04-09T05:31:51;102223.81;;;5.90;78.33
79372;BME280;68914;51.262;6.802;2023-04-09T05:32:59;102230.94;;;5.88;78.60
79372;BME280;68914;51.262;6.802;2023-04-09T05:34:01;102222.84;;;5.91;78.34
79372;BME280;68914;51.262;6.802;2023-04-09T05:35:24;102220.53;;;5.98;78.01
79372;BME280;68914;51.262;6.802;2023-04-09T05:36:24;102223.84;;;6.00;78.61
79372;BME280;68914;51.262;6.802;2023-04-09T05:37:26;102217.38;;;5.94;78.63
79372;BME280;68914;51.262;6.802;2023-04-09T05:38:27;102219.03;;;6.05;78.39
79372;BME280;68914;51.262;6.802;2023-04-09T05:39:31;102224.03;;;6.08;78.02
79372;BME280;68914;51.262;6.802;2023-04-09T05:40:33;102216.47;;;6.14;78.30
79372;BME280;68914;51.262;6.802;2023-04-09T05:41:36;102219.66;;;6.18;78.66
79372;BME280;68914;51.262;6.802;2023-04-09T05:42:55;102216.63;;;6.32;77.90
79372;BME280;68914;51.262;6.802;2023-04-09T05:44:06;102227.09;;;6.32;78.20
79372;BME280;68914;51.262;6.802;2023-04-09T05:45:08;102221.88;;;6.32;77.69